sensor_id;sensor_type;location;lat;lon;timestamp;P1;durP1;ratioP1;P2;durP2;ratioP2
45103;SDS011;30865;51.288;4.572;2023-04-30T00:00:29;9.95;;;4.07;;
45103;SDS011;30865;51.288;4.572;2023-04-30T00:02:54;8.50;;;4.05;;
45103;SDS011;30865;51.288;4.572;2023-04-30T00:05:20;7.25;;;4.20;;
45103;SDS011;30865;51.288;4.572;2023-04-30T00:07:45;7.07;;;3.80;;
45103;SDS011;30865;51.288;4.572;2023-04-30T00:10:10;5.75;;;3.67;;
45103;SDS011;30865;51.288;4.572;2023-04-30T00:12:36;7.03;;;4.30;;
45103;SDS011;30865;51.288;4.572;2023-04-30T00:15:02;7.75;;;3.50;;
45103;SDS011;30865;51.288;4.572;2023-04-30T00:17:29;6.40;;;4.25;;
45103;SDS011;30865;51.288;4.572;2023-04-30T00:19:54;6.57;;;3.55;;
45103;SDS011;30865;51.288;4.572;2023-04-30T00:22:20;6.97;;;4.40;;
45103;SDS011;30865;51.288;4.572;2023-04-30T00:24:46;4.72;;;3.38;;
45103;SDS011;30865;51.288;4.572;2023-04-30T00:27:11;5.00;;;3.88;;
45103;SDS011;30865;51.288;4.572;2023-04-30T00:29:37;5.53;;;3.70;;
45103;SDS011;30865;51.288;4.572;2023-04-30T00:32:02;6.40;;;3.95;;
45103;SDS011;30865;51.288;4.572;2023-04-30T00:34:28;6.55;;;3.55;;
45103;SDS011;30865;51.288;4.572;2023-04-30T00:36:53;6.50;;;3.95;;
45103;SDS011;30865;51.288;4.572;2023-04-30T00:39:19;5.63;;;3.75;;
45103;SDS011;30865;51.288;4.572;2023-04-30T00:41:44;5.43;;;4.00;;
45103;SDS011;30865;51.288;4.572;2023-04-30T00:44:10;7.68;;;4.22;;
45103;SDS011;30865;51.288;4.572;2023-04-30T00:46:35;7.68;;;4.20;;
45103;SDS011;30865;51.288;4.572;2023-04-30T00:49:01;7.95;;;3.83;;
45103;SDS011;30865;51.288;4.572;2023-04-30T00:51:29;6.88;;;4.03;;
45103;SDS011;30865;51.288;4.572;2023-04-30T00:53:56;5.75;;;4.20;;
45103;SDS011;30865;51.288;4.572;2023-04-30T00:56:24;8.27;;;3.40;;
45103;SDS011;30865;51.288;4.572;2023-04-30T00:58:50;6.30;;;3.55;;
45103;SDS011;30865;51.288;4.572;2023-04-30T01:01:20;6.65;;;4.20;;
45103;SDS011;30865;51.288;4.572;2023-04-30T01:03:48;6.00;;;4.13;;
45103;SDS011;30865;51.288;4.572;2023-04-30T01:06:14;5.22;;;3.95;;
45103;SDS011;30865;51.288;4.572;2023-04-30T01:08:39;6.30;;;4.75;;
45103;SDS011;30865;51.288;4.572;2023-04-30T01:11:11;6.88;;;4.18;;
45103;SDS011;30865;51.288;4.572;2023-04-30T01:13:50;7.15;;;3.80;;
45103;SDS011;30865;51.288;4.572;2023-04-30T01:16:24;8.80;;;4.43;;
45103;SDS011;30865;51.288;4.572;2023-04-30T01:18:59;6.55;;;4.63;;
45103;SDS011;30865;51.288;4.572;2023-04-30T01:21:29;6.05;;;3.88;;
45103;SDS011;30865;51.288;4.572;2023-04-30T01:27:12;10.20;;;4.55;;
45103;SDS011;30865;51.288;4.572;2023-04-30T01:29:55;6.53;;;4.05;;
45103;SDS011;30865;51.288;4.572;2023-04-30T01:32:21;6.05;;;4.05;;
45103;SDS011;30865;51.288;4.572;2023-04-30T01:34:47;5.80;;;4.13;;
45103;SDS011;30865;51.288;4.572;2023-04-30T01:37:21;9.05;;;4.28;;
45103;SDS011;30865;51.288;4.572;2023-04-30T01:40:09;5.35;;;3.88;;
45103;SDS011;30865;51.288;4.572;2023-04-30T01:43:03;7.78;;;4.45;;
45103;SDS011;30865;51.288;4.572;2023-04-30T01:45:50;5.15;;;3.33;;
45103;SDS011;30865;51.288;4.572;2023-04-30T01:51:31;8.90;;;5.15;;
45103;SDS011;30865;51.288;4.572;2023-04-30T01:54:05;9.88;;;4.82;;
45103;SDS011;30865;51.288;4.572;2023-04-30T01:56:43;6.85;;;4.63;;
45103;SDS011;30865;51.288;4.572;2023-04-30T01:59:13;8.25;;;5.25;;
45103;SDS011;30865;51.288;4.572;2023-04-30T02:01:40;9.32;;;4.60;;
45103;SDS011;30865;51.288;4.572;2023-04-30T02:04:06;9.02;;;5.50;;
45103;SDS011;30865;51.288;4.572;2023-04-30T02:06:31;8.30;;;5.43;;
45103;SDS011;30865;51.288;4.572;2023-04-30T02:08:57;10.38;;;5.63;;
45103;SDS011;30865;51.288;4.572;2023-04-30T02:11:29;8.60;;;5.35;;
45103;SDS011;30865;51.288;4.572;2023-04-30T02:13:55;8.88;;;5.40;;
45103;SDS011;30865;51.288;4.572;2023-04-30T02:16:20;8.55;;;5.38;;
45103;SDS011;30865;51.288;4.572;2023-04-30T02:18:46;9.85;;;5.00;;
45103;SDS011;30865;51.288;4.572;2023-04-30T02:21:11;8.82;;;5.68;;
45103;SDS011;30865;51.288;4.572;2023-04-30T02:23:38;8.95;;;5.78;;
45103;SDS011;30865;51.288;4.572;2023-04-30T02:26:03;8.52;;;5.00;;
45103;SDS011;30865;51.288;4.572;2023-04-30T02:28:29;10.20;;;5.68;;
45103;SDS011;30865;51.288;4.572;2023-04-30T02:30:54;10.23;;;6.57;;
45103;SDS011;30865;51.288;4.572;2023-04-30T02:33:21;9.55;;;5.72;;
45103;SDS011;30865;51.288;4.572;2023-04-30T02:35:46;9.52;;;5.32;;
45103;SDS011;30865;51.288;4.572;2023-04-30T02:38:12;9.77;;;6.00;;
45103;SDS011;30865;51.288;4.572;2023-04-30T02:40:39;9.80;;;5.40;;
45103;SDS011;30865;51.288;4.572;2023-04-30T02:43:05;12.68;;;6.38;;
45103;SDS011;30865;51.288;4.572;2023-04-30T02:45:30;12.98;;;6.20;;
45103;SDS011;30865;51.288;4.572;2023-04-30T02:47:56;9.32;;;5.32;;
45103;SDS011;30865;51.288;4.572;2023-04-30T02:50:21;8.93;;;5.75;;
45103;SDS011;30865;51.288;4.572;2023-04-30T02:52:47;9.38;;;5.50;;
45103;SDS011;30865;51.288;4.572;2023-04-30T02:55:12;9.63;;;6.18;;
45103;SDS011;30865;51.288;4.572;2023-04-30T02:57:38;8.45;;;5.38;;
45103;SDS011;30865;51.288;4.572;2023-04-30T03:00:04;9.77;;;5.35;;
45103;SDS011;30865;51.288;4.572;2023-04-30T03:02:31;9.18;;;5.53;;
45103;SDS011;30865;51.288;4.572;2023-04-30T03:04:56;10.98;;;5.95;;
45103;SDS011;30865;51.288;4.572;2023-04-30T03:07:22;10.70;;;5.57;;
45103;SDS011;30865;51.288;4.572;2023-04-30T03:09:47;9.07;;;5.47;;
45103;SDS011;30865;51.288;4.572;2023-04-30T03:12:15;8.43;;;5.68;;
45103;SDS011;30865;51.288;4.572;2023-04-30T03:14:41;11.45;;;5.90;;
45103;SDS011;30865;51.288;4.572;2023-04-30T03:17:06;8.57;;;5.57;;
45103;SDS011;30865;51.288;4.572;2023-04-30T03:19:32;8.25;;;5.32;;
45103;SDS011;30865;51.288;4.572;2023-04-30T03:21:58;9.75;;;5.43;;
45103;SDS011;30865;51.288;4.572;2023-04-30T03:24:23;7.30;;;5.07;;
45103;SDS011;30865;51.288;4.572;2023-04-30T03:26:49;8.88;;;5.43;;
45103;SDS011;30865;51.288;4.572;2023-04-30T03:29:15;8.80;;;5.00;;
45103;SDS011;30865;51.288;4.572;2023-04-30T03:31:41;7.90;;;5.30;;
45103;SDS011;30865;51.288;4.572;2023-04-30T03:34:06;9.07;;;5.47;;
45103;SDS011;30865;51.288;4.572;2023-04-30T03:36:32;8.88;;;5.97;;
45103;SDS011;30865;51.288;4.572;2023-04-30T03:38:58;9.95;;;6.13;;
45103;SDS011;30865;51.288;4.572;2023-04-30T03:41:24;8.15;;;5.30;;
45103;SDS011;30865;51.288;4.572;2023-04-30T03:43:50;8.32;;;5.38;;
45103;SDS011;30865;51.288;4.572;2023-04-30T03:46:15;10.55;;;5.40;;
45103;SDS011;30865;51.288;4.572;2023-04-30T03:48:41;9.88;;;5.05;;
45103;SDS011;30865;51.288;4.572;2023-04-30T03:51:06;10.98;;;5.60;;
45103;SDS011;30865;51.288;4.572;2023-04-30T03:53:33;10.85;;;6.07;;
45103;SDS011;30865;51.288;4.572;2023-04-30T03:55:58;8.70;;;5.82;;
45103;SDS011;30865;51.288;4.572;2023-04-30T03:58:24;9.45;;;5.78;;
45103;SDS011;30865;51.288;4.572;2023-04-30T04:00:50;9.55;;;5.50;;
45103;SDS011;30865;51.288;4.572;2023-04-30T04:03:16;11.00;;;5.90;;
45103;SDS011;30865;51.288;4.572;2023-04-30T04:05:42;11.13;;;5.68;;
45103;SDS011;30865;51.288;4.572;2023-04-30T04:08:08;9.63;;;5.55;;
45103;SDS011;30865;51.288;4.572;2023-04-30T04:10:34;8.80;;;5.70;;
45103;SDS011;30865;51.288;4.572;2023-04-30T04:13:00;9.82;;;6.07;;
45103;SDS011;30865;51.288;4.572;2023-04-30T04:15:25;8.35;;;5.20;;
45103;SDS011;30865;51.288;4.572;2023-04-30T04:17:51;11.85;;;5.47;;
45103;SDS011;30865;51.288;4.572;2023-04-30T04:20:16;9.32;;;5.40;;
45103;SDS011;30865;51.288;4.572;2023-04-30T04:22:42;11.10;;;6.28;;
45103;SDS011;30865;51.288;4.572;2023-04-30T04:25:08;9.45;;;5.68;;
45103;SDS011;30865;51.288;4.572;2023-04-30T04:27:34;7.85;;;5.75;;
45103;SDS011;30865;51.288;4.572;2023-04-30T04:30:00;7.90;;;5.57;;
45103;SDS011;30865;51.288;4.572;2023-04-30T04:32:26;7.72;;;5.32;;
45103;SDS011;30865;51.288;4.572;2023-04-30T04:34:52;10.90;;;5.60;;
45103;SDS011;30865;51.288;4.572;2023-04-30T04:37:19;10.10;;;5.43;;
45103;SDS011;30865;51.288;4.572;2023-04-30T04:39:44;8.50;;;5.30;;
45103;SDS011;30865;51.288;4.572;2023-04-30T04:42:10;7.88;;;5.30;;
45103;SDS011;30865;51.288;4.572;2023-04-30T04:44:36;8.75;;;5.47;;
45103;SDS011;30865;51.288;4.572;2023-04-30T04:47:02;8.35;;;5.20;;
45103;SDS011;30865;51.288;4.572;2023-04-30T04:49:28;9.60;;;6.22;;
45103;SDS011;30865;51.288;4.572;2023-04-30T04:51:53;8.77;;;5.28;;
45103;SDS011;30865;51.288;4.572;2023-04-30T04:54:19;8.25;;;5.25;;
45103;SDS011;30865;51.288;4.572;2023-04-30T04:56:45;8.27;;;4.85;;
45103;SDS011;30865;51.288;4.572;2023-04-30T04:59:11;8.23;;;5.38;;
45103;SDS011;30865;51.288;4.572;2023-04-30T05:01:37;7.70;;;4.85;;
45103;SDS011;30865;51.288;4.572;2023-04-30T05:04:02;10.52;;;5.55;;
45103;SDS011;30865;51.288;4.572;2023-04-30T05:06:28;8.27;;;5.40;;
45103;SDS011;30865;51.288;4.572;2023-04-30T05:08:54;8.07;;;5.50;;
45103;SDS011;30865;51.288;4.572;2023-04-30T05:11:20;7.93;;;5.03;;
45103;SDS011;30865;51.288;4.572;2023-04-30T05:13:56;10.20;;;5.40;;
45103;SDS011;30865;51.288;4.572;2023-04-30T05:16:22;10.07;;;5.63;;
45103;SDS011;30865;51.288;4.572;2023-04-30T05:18:47;8.68;;;5.35;;
45103;SDS011;30865;51.288;4.572;2023-04-30T05:21:13;6.80;;;5.18;;
45103;SDS011;30865;51.288;4.572;2023-04-30T05:23:38;8.50;;;4.97;;
45103;SDS011;30865;51.288;4.572;2023-04-30T05:26:04;8.05;;;5.32;;
45103;SDS011;30865;51.288;4.572;2023-04-30T05:28:29;8.73;;;5.15;;
45103;SDS011;30865;51.288;4.572;2023-04-30T05:30:55;10.20;;;5.85;;
45103;SDS011;30865;51.288;4.572;2023-04-30T05:33:21;9.50;;;5.72;;
45103;SDS011;30865;51.288;4.572;2023-04-30T05:35:46;10.98;;;5.82;;
45103;SDS011;30865;51.288;4.572;2023-04-30T05:38:14;7.03;;;5.18;;
45103;SDS011;30865;51.288;4.572;2023-04-30T05:40:41;8.40;;;5.10;;
45103;SDS011;30865;51.288;4.572;2023-04-30T05:43:07;8.63;;;5.45;;
45103;SDS011;30865;51.288;4.572;2023-04-30T05:45:32;12.10;;;5.38;;
45103;SDS011;30865;51.288;4.572;2023-04-30T05:47:58;8.65;;;6.05;;
45103;SDS011;30865;51.288;4.572;2023-04-30T05:50:25;7.25;;;5.25;;
45103;SDS011;30865;51.288;4.572;2023-04-30T05:52:51;11.13;;;5.43;;
45103;SDS011;30865;51.288;4.572;2023-04-30T05:55:16;8.75;;;5.60;;
45103;SDS011;30865;51.288;4.572;2023-04-30T05:57:42;9.27;;;6.25;;
45103;SDS011;30865;51.288;4.572;2023-04-30T06:00:07;8.70;;;6.07;;
45103;SDS011;30865;51.288;4.572;2023-04-30T06:02:33;7.15;;;5.10;;
45103;SDS011;30865;51.288;4.572;2023-04-30T06:04:59;8.45;;;5.13;;
45103;SDS011;30865;51.288;4.572;2023-04-30T06:07:26;7.63;;;5.65;;
45103;SDS011;30865;51.288;4.572;2023-04-30T06:09:52;9.60;;;5.07;;
45103;SDS011;30865;51.288;4.572;2023-04-30T06:12:17;8.05;;;5.35;;
45103;SDS011;30865;51.288;4.572;2023-04-30T06:14:43;7.78;;;5.05;;
45103;SDS011;30865;51.288;4.572;2023-04-30T06:17:10;6.93;;;5.60;;
45103;SDS011;30865;51.288;4.572;2023-04-30T06:19:36;7.88;;;5.50;;
45103;SDS011;30865;51.288;4.572;2023-04-30T06:22:02;9.45;;;5.47;;
45103;SDS011;30865;51.288;4.572;2023-04-30T06:24:28;7.97;;;5.22;;
45103;SDS011;30865;51.288;4.572;2023-04-30T06:26:54;8.15;;;5.65;;
45103;SDS011;30865;51.288;4.572;2023-04-30T06:29:20;9.73;;;6.00;;
45103;SDS011;30865;51.288;4.572;2023-04-30T06:31:48;8.23;;;5.38;;
45103;SDS011;30865;51.288;4.572;2023-04-30T06:34:14;12.18;;;5.68;;
45103;SDS011;30865;51.288;4.572;2023-04-30T06:36:40;7.63;;;5.20;;
45103;SDS011;30865;51.288;4.572;2023-04-30T06:39:05;8.27;;;5.32;;
45103;SDS011;30865;51.288;4.572;2023-04-30T06:41:31;8.55;;;5.50;;
45103;SDS011;30865;51.288;4.572;2023-04-30T06:43:56;6.97;;;5.30;;
45103;SDS011;30865;51.288;4.572;2023-04-30T06:46:22;8.27;;;5.13;;
45103;SDS011;30865;51.288;4.572;2023-04-30T06:48:47;7.88;;;6.00;;
45103;SDS011;30865;51.288;4.572;2023-04-30T06:51:19;12.82;;;4.97;;
45103;SDS011;30865;51.288;4.572;2023-04-30T06:53:44;8.68;;;4.68;;
45103;SDS011;30865;51.288;4.572;2023-04-30T06:56:10;9.48;;;6.03;;
45103;SDS011;30865;51.288;4.572;2023-04-30T06:58:35;5.97;;;4.75;;
45103;SDS011;30865;51.288;4.572;2023-04-30T07:01:01;7.47;;;4.55;;
45103;SDS011;30865;51.288;4.572;2023-04-30T07:03:37;6.90;;;4.47;;
45103;SDS011;30865;51.288;4.572;2023-04-30T07:06:02;6.63;;;4.90;;
45103;SDS011;30865;51.288;4.572;2023-04-30T07:08:28;6.25;;;4.35;;
45103;SDS011;30865;51.288;4.572;2023-04-30T07:10:54;7.00;;;4.50;;
45103;SDS011;30865;51.288;4.572;2023-04-30T07:13:19;7.35;;;4.95;;
45103;SDS011;30865;51.288;4.572;2023-04-30T07:15:51;7.07;;;4.95;;
45103;SDS011;30865;51.288;4.572;2023-04-30T07:18:17;6.55;;;5.05;;
45103;SDS011;30865;51.288;4.572;2023-04-30T07:20:43;7.82;;;4.82;;
45103;SDS011;30865;51.288;4.572;2023-04-30T07:23:08;7.43;;;4.57;;
45103;SDS011;30865;51.288;4.572;2023-04-30T07:25:34;6.78;;;4.72;;
45103;SDS011;30865;51.288;4.572;2023-04-30T07:27:59;7.13;;;4.38;;
45103;SDS011;30865;51.288;4.572;2023-04-30T07:30:25;6.47;;;4.50;;
45103;SDS011;30865;51.288;4.572;2023-04-30T07:32:50;5.65;;;3.92;;
45103;SDS011;30865;51.288;4.572;2023-04-30T07:35:16;6.65;;;4.03;;
45103;SDS011;30865;51.288;4.572;2023-04-30T07:37:41;6.68;;;4.85;;
45103;SDS011;30865;51.288;4.572;2023-04-30T07:40:08;7.82;;;3.88;;
45103;SDS011;30865;51.288;4.572;2023-04-30T07:42:37;4.90;;;4.13;;
45103;SDS011;30865;51.288;4.572;2023-04-30T07:45:11;7.03;;;4.45;;
45103;SDS011;30865;51.288;4.572;2023-04-30T07:47:37;5.35;;;3.80;;
45103;SDS011;30865;51.288;4.572;2023-04-30T07:50:03;6.25;;;3.80;;
45103;SDS011;30865;51.288;4.572;2023-04-30T07:52:29;5.90;;;4.10;;
45103;SDS011;30865;51.288;4.572;2023-04-30T07:54:54;9.02;;;4.45;;
45103;SDS011;30865;51.288;4.572;2023-04-30T07:57:20;5.80;;;4.15;;
45103;SDS011;30865;51.288;4.572;2023-04-30T07:59:45;4.45;;;3.60;;
45103;SDS011;30865;51.288;4.572;2023-04-30T08:02:11;6.18;;;4.47;;
45103;SDS011;30865;51.288;4.572;2023-04-30T08:04:37;7.63;;;4.18;;
45103;SDS011;30865;51.288;4.572;2023-04-30T08:07:02;6.35;;;4.43;;
45103;SDS011;30865;51.288;4.572;2023-04-30T08:09:28;4.85;;;3.53;;
45103;SDS011;30865;51.288;4.572;2023-04-30T08:11:54;4.47;;;3.63;;
45103;SDS011;30865;51.288;4.572;2023-04-30T08:14:20;5.55;;;3.72;;
45103;SDS011;30865;51.288;4.572;2023-04-30T08:16:45;5.15;;;3.35;;
45103;SDS011;30865;51.288;4.572;2023-04-30T08:19:11;7.72;;;3.42;;
45103;SDS011;30865;51.288;4.572;2023-04-30T08:21:37;5.38;;;3.22;;
45103;SDS011;30865;51.288;4.572;2023-04-30T08:24:02;5.53;;;3.72;;
45103;SDS011;30865;51.288;4.572;2023-04-30T08:26:28;6.00;;;3.00;;
45103;SDS011;30865;51.288;4.572;2023-04-30T08:28:54;5.78;;;3.28;;
45103;SDS011;30865;51.288;4.572;2023-04-30T08:31:19;4.93;;;3.63;;
45103;SDS011;30865;51.288;4.572;2023-04-30T08:33:45;5.45;;;3.15;;
45103;SDS011;30865;51.288;4.572;2023-04-30T08:36:10;5.18;;;3.63;;
45103;SDS011;30865;51.288;4.572;2023-04-30T08:38:36;5.05;;;2.42;;
45103;SDS011;30865;51.288;4.572;2023-04-30T08:41:09;4.97;;;3.05;;
45103;SDS011;30865;51.288;4.572;2023-04-30T08:43:36;3.05;;;2.33;;
45103;SDS011;30865;51.288;4.572;2023-04-30T08:46:03;5.93;;;2.70;;
45103;SDS011;30865;51.288;4.572;2023-04-30T08:48:30;5.63;;;2.97;;
45103;SDS011;30865;51.288;4.572;2023-04-30T08:50:59;3.72;;;2.47;;
45103;SDS011;30865;51.288;4.572;2023-04-30T08:53:26;3.00;;;2.13;;
45103;SDS011;30865;51.288;4.572;2023-04-30T08:55:51;4.05;;;2.33;;
45103;SDS011;30865;51.288;4.572;2023-04-30T08:58:17;3.13;;;2.53;;
45103;SDS011;30865;51.288;4.572;2023-04-30T09:00:42;3.60;;;2.97;;
45103;SDS011;30865;51.288;4.572;2023-04-30T09:03:08;2.65;;;2.00;;
45103;SDS011;30865;51.288;4.572;2023-04-30T09:05:34;2.20;;;2.00;;
45103;SDS011;30865;51.288;4.572;2023-04-30T09:08:00;4.05;;;3.03;;
45103;SDS011;30865;51.288;4.572;2023-04-30T09:10:26;3.78;;;3.05;;
45103;SDS011;30865;51.288;4.572;2023-04-30T09:15:30;4.88;;;2.35;;
45103;SDS011;30865;51.288;4.572;2023-04-30T09:18:07;3.17;;;2.40;;
45103;SDS011;30865;51.288;4.572;2023-04-30T09:20:34;4.30;;;2.17;;
45103;SDS011;30865;51.288;4.572;2023-04-30T09:23:07;3.45;;;2.42;;
45103;SDS011;30865;51.288;4.572;2023-04-30T09:25:37;2.40;;;2.03;;
45103;SDS011;30865;51.288;4.572;2023-04-30T09:28:08;4.22;;;2.13;;
45103;SDS011;30865;51.288;4.572;2023-04-30T09:30:35;3.67;;;1.90;;
45103;SDS011;30865;51.288;4.572;2023-04-30T09:33:01;2.08;;;1.88;;
45103;SDS011;30865;51.288;4.572;2023-04-30T09:35:27;2.15;;;1.90;;
45103;SDS011;30865;51.288;4.572;2023-04-30T09:38:01;1.83;;;1.70;;
45103;SDS011;30865;51.288;4.572;2023-04-30T09:40:40;2.80;;;1.77;;
45103;SDS011;30865;51.288;4.572;2023-04-30T09:43:07;1.75;;;1.65;;
45103;SDS011;30865;51.288;4.572;2023-04-30T09:45:39;3.45;;;1.92;;
45103;SDS011;30865;51.288;4.572;2023-04-30T09:48:07;2.15;;;1.83;;
45103;SDS011;30865;51.288;4.572;2023-04-30T09:50:43;2.03;;;1.45;;
45103;SDS011;30865;51.288;4.572;2023-04-30T09:53:10;3.00;;;1.77;;
45103;SDS011;30865;51.288;4.572;2023-04-30T09:55:42;2.35;;;1.30;;
45103;SDS011;30865;51.288;4.572;2023-04-30T09:58:09;1.65;;;1.55;;
45103;SDS011;30865;51.288;4.572;2023-04-30T10:00:36;2.70;;;1.40;;
45103;SDS011;30865;51.288;4.572;2023-04-30T10:03:07;2.90;;;1.80;;
45103;SDS011;30865;51.288;4.572;2023-04-30T10:05:41;1.35;;;1.25;;
45103;SDS011;30865;51.288;4.572;2023-04-30T10:10:49;2.47;;;1.77;;
45103;SDS011;30865;51.288;4.572;2023-04-30T10:13:18;2.35;;;1.83;;
45103;SDS011;30865;51.288;4.572;2023-04-30T10:15:47;1.90;;;1.73;;
45103;SDS011;30865;51.288;4.572;2023-04-30T10:18:18;2.35;;;1.60;;
45103;SDS011;30865;51.288;4.572;2023-04-30T10:20:47;5.68;;;1.75;;
45103;SDS011;30865;51.288;4.572;2023-04-30T10:23:14;1.65;;;1.45;;
45103;SDS011;30865;51.288;4.572;2023-04-30T10:25:39;1.90;;;1.60;;
45103;SDS011;30865;51.288;4.572;2023-04-30T10:28:06;4.03;;;2.13;;
45103;SDS011;30865;51.288;4.572;2023-04-30T10:30:33;1.95;;;1.75;;
45103;SDS011;30865;51.288;4.572;2023-04-30T10:33:11;2.75;;;2.42;;
45103;SDS011;30865;51.288;4.572;2023-04-30T10:35:56;2.42;;;1.92;;
45103;SDS011;30865;51.288;4.572;2023-04-30T10:38:25;3.17;;;2.13;;
45103;SDS011;30865;51.288;4.572;2023-04-30T10:40:55;2.83;;;2.05;;
45103;SDS011;30865;51.288;4.572;2023-04-30T10:43:23;4.30;;;1.88;;
45103;SDS011;30865;51.288;4.572;2023-04-30T10:45:50;4.43;;;2.10;;
45103;SDS011;30865;51.288;4.572;2023-04-30T10:48:16;2.92;;;2.30;;
45103;SDS011;30865;51.288;4.572;2023-04-30T10:50:49;3.17;;;2.10;;
45103;SDS011;30865;51.288;4.572;2023-04-30T10:53:17;3.72;;;2.53;;
45103;SDS011;30865;51.288;4.572;2023-04-30T10:55:47;2.33;;;2.10;;
45103;SDS011;30865;51.288;4.572;2023-04-30T10:58:29;7.47;;;2.43;;
45103;SDS011;30865;51.288;4.572;2023-04-30T11:01:00;3.30;;;2.50;;
45103;SDS011;30865;51.288;4.572;2023-04-30T11:03:42;2.95;;;2.10;;
45103;SDS011;30865;51.288;4.572;2023-04-30T11:06:29;4.43;;;2.10;;
45103;SDS011;30865;51.288;4.572;2023-04-30T11:14:52;2.55;;;1.98;;
45103;SDS011;30865;51.288;4.572;2023-04-30T11:17:45;4.00;;;2.35;;
45103;SDS011;30865;51.288;4.572;2023-04-30T11:20:12;2.58;;;1.80;;
45103;SDS011;30865;51.288;4.572;2023-04-30T11:22:39;2.65;;;2.17;;
45103;SDS011;30865;51.288;4.572;2023-04-30T11:25:06;2.50;;;1.98;;
45103;SDS011;30865;51.288;4.572;2023-04-30T11:27:33;4.68;;;2.33;;
45103;SDS011;30865;51.288;4.572;2023-04-30T11:30:00;2.13;;;1.50;;
45103;SDS011;30865;51.288;4.572;2023-04-30T11:32:33;3.33;;;1.80;;
45103;SDS011;30865;51.288;4.572;2023-04-30T11:35:10;4.13;;;2.45;;
45103;SDS011;30865;51.288;4.572;2023-04-30T11:37:36;3.92;;;1.95;;
45103;SDS011;30865;51.288;4.572;2023-04-30T11:40:07;3.40;;;2.30;;
45103;SDS011;30865;51.288;4.572;2023-04-30T11:42:35;3.70;;;1.75;;
45103;SDS011;30865;51.288;4.572;2023-04-30T11:45:10;1.80;;;1.63;;
45103;SDS011;30865;51.288;4.572;2023-04-30T11:47:47;1.83;;;1.60;;
45103;SDS011;30865;51.288;4.572;2023-04-30T11:50:15;2.95;;;1.90;;
45103;SDS011;30865;51.288;4.572;2023-04-30T11:52:42;2.90;;;1.90;;
45103;SDS011;30865;51.288;4.572;2023-04-30T11:55:14;3.30;;;2.00;;
45103;SDS011;30865;51.288;4.572;2023-04-30T11:57:41;3.53;;;2.05;;
45103;SDS011;30865;51.288;4.572;2023-04-30T12:00:15;1.65;;;1.55;;
45103;SDS011;30865;51.288;4.572;2023-04-30T12:02:43;3.08;;;1.63;;
45103;SDS011;30865;51.288;4.572;2023-04-30T12:05:16;2.25;;;1.75;;
45103;SDS011;30865;51.288;4.572;2023-04-30T12:07:47;2.40;;;1.80;;
45103;SDS011;30865;51.288;4.572;2023-04-30T12:10:19;2.53;;;1.60;;
45103;SDS011;30865;51.288;4.572;2023-04-30T12:12:47;2.67;;;2.47;;
45103;SDS011;30865;51.288;4.572;2023-04-30T12:15:15;1.95;;;1.85;;
45103;SDS011;30865;51.288;4.572;2023-04-30T12:17:46;1.40;;;1.30;;
45103;SDS011;30865;51.288;4.572;2023-04-30T12:20:12;3.10;;;2.10;;
45103;SDS011;30865;51.288;4.572;2023-04-30T12:22:39;3.47;;;2.15;;
45103;SDS011;30865;51.288;4.572;2023-04-30T12:25:06;2.70;;;1.98;;
45103;SDS011;30865;51.288;4.572;2023-04-30T12:27:35;2.88;;;1.83;;
45103;SDS011;30865;51.288;4.572;2023-04-30T12:30:09;3.35;;;2.03;;
45103;SDS011;30865;51.288;4.572;2023-04-30T12:32:38;3.05;;;1.70;;
45103;SDS011;30865;51.288;4.572;2023-04-30T12:35:13;8.32;;;2.97;;
45103;SDS011;30865;51.288;4.572;2023-04-30T12:37:46;3.17;;;2.47;;
45103;SDS011;30865;51.288;4.572;2023-04-30T12:40:14;2.70;;;1.92;;
45103;SDS011;30865;51.288;4.572;2023-04-30T12:42:41;2.95;;;2.03;;
45103;SDS011;30865;51.288;4.572;2023-04-30T12:45:08;2.75;;;2.10;;
45103;SDS011;30865;51.288;4.572;2023-04-30T12:47:40;3.00;;;2.30;;
45103;SDS011;30865;51.288;4.572;2023-04-30T12:50:07;3.58;;;2.40;;
45103;SDS011;30865;51.288;4.572;2023-04-30T12:52:35;3.55;;;2.45;;
45103;SDS011;30865;51.288;4.572;2023-04-30T12:55:20;2.97;;;2.33;;
45103;SDS011;30865;51.288;4.572;2023-04-30T13:00:48;3.45;;;1.65;;
45103;SDS011;30865;51.288;4.572;2023-04-30T13:03:17;2.20;;;2.00;;
45103;SDS011;30865;51.288;4.572;2023-04-30T13:05:49;3.35;;;1.88;;
45103;SDS011;30865;51.288;4.572;2023-04-30T13:08:15;2.13;;;1.88;;
45103;SDS011;30865;51.288;4.572;2023-04-30T13:10:42;2.72;;;1.92;;
45103;SDS011;30865;51.288;4.572;2023-04-30T13:13:11;5.38;;;2.13;;
45103;SDS011;30865;51.288;4.572;2023-04-30T13:15:37;1.70;;;1.60;;
45103;SDS011;30865;51.288;4.572;2023-04-30T13:18:04;3.58;;;2.13;;
45103;SDS011;30865;51.288;4.572;2023-04-30T13:20:32;2.80;;;1.77;;
45103;SDS011;30865;51.288;4.572;2023-04-30T13:22:58;2.85;;;1.65;;
45103;SDS011;30865;51.288;4.572;2023-04-30T13:25:24;2.42;;;2.00;;
45103;SDS011;30865;51.288;4.572;2023-04-30T13:27:49;2.65;;;1.77;;
45103;SDS011;30865;51.288;4.572;2023-04-30T13:30:15;2.42;;;1.70;;
45103;SDS011;30865;51.288;4.572;2023-04-30T13:32:44;3.88;;;2.08;;
45103;SDS011;30865;51.288;4.572;2023-04-30T13:35:10;2.67;;;2.20;;
45103;SDS011;30865;51.288;4.572;2023-04-30T13:37:36;2.80;;;1.83;;
45103;SDS011;30865;51.288;4.572;2023-04-30T13:40:02;4.07;;;2.00;;
45103;SDS011;30865;51.288;4.572;2023-04-30T13:42:32;3.17;;;2.10;;
45103;SDS011;30865;51.288;4.572;2023-04-30T13:44:58;4.50;;;1.98;;
45103;SDS011;30865;51.288;4.572;2023-04-30T13:47:23;2.15;;;1.95;;
45103;SDS011;30865;51.288;4.572;2023-04-30T13:49:49;2.20;;;1.77;;
45103;SDS011;30865;51.288;4.572;2023-04-30T13:52:14;4.63;;;1.95;;
45103;SDS011;30865;51.288;4.572;2023-04-30T13:54:40;4.25;;;1.60;;
45103;SDS011;30865;51.288;4.572;2023-04-30T13:57:15;5.45;;;2.97;;
45103;SDS011;30865;51.288;4.572;2023-04-30T13:59:40;3.95;;;2.00;;
45103;SDS011;30865;51.288;4.572;2023-04-30T14:02:06;5.10;;;2.63;;
45103;SDS011;30865;51.288;4.572;2023-04-30T14:04:31;2.72;;;2.08;;
45103;SDS011;30865;51.288;4.572;2023-04-30T14:06:57;1.83;;;1.70;;
45103;SDS011;30865;51.288;4.572;2023-04-30T14:09:23;1.80;;;1.63;;
45103;SDS011;30865;51.288;4.572;2023-04-30T14:11:49;6.78;;;1.95;;
45103;SDS011;30865;51.288;4.572;2023-04-30T14:14:15;1.73;;;1.42;;
45103;SDS011;30865;51.288;4.572;2023-04-30T14:16:40;3.45;;;1.98;;
45103;SDS011;30865;51.288;4.572;2023-04-30T14:19:08;1.98;;;1.73;;
45103;SDS011;30865;51.288;4.572;2023-04-30T14:21:34;2.05;;;1.35;;
45103;SDS011;30865;51.288;4.572;2023-04-30T14:24:00;2.97;;;1.52;;
45103;SDS011;30865;51.288;4.572;2023-04-30T14:26:25;1.92;;;1.73;;
45103;SDS011;30865;51.288;4.572;2023-04-30T14:28:51;1.63;;;1.52;;
45103;SDS011;30865;51.288;4.572;2023-04-30T14:31:16;4.70;;;1.77;;
45103;SDS011;30865;51.288;4.572;2023-04-30T14:33:42;3.33;;;2.33;;
45103;SDS011;30865;51.288;4.572;2023-04-30T14:36:08;2.00;;;1.67;;
45103;SDS011;30865;51.288;4.572;2023-04-30T14:38:33;2.33;;;1.80;;
45103;SDS011;30865;51.288;4.572;2023-04-30T14:40:59;2.35;;;1.85;;
45103;SDS011;30865;51.288;4.572;2023-04-30T14:43:24;2.05;;;1.58;;
45103;SDS011;30865;51.288;4.572;2023-04-30T14:45:50;1.90;;;1.67;;
45103;SDS011;30865;51.288;4.572;2023-04-30T14:48:16;2.15;;;1.90;;
45103;SDS011;30865;51.288;4.572;2023-04-30T14:50:42;3.22;;;1.80;;
45103;SDS011;30865;51.288;4.572;2023-04-30T14:53:08;2.22;;;1.90;;
45103;SDS011;30865;51.288;4.572;2023-04-30T14:55:38;2.30;;;1.70;;
45103;SDS011;30865;51.288;4.572;2023-04-30T14:58:03;3.17;;;1.88;;
45103;SDS011;30865;51.288;4.572;2023-04-30T15:00:30;2.35;;;1.77;;
45103;SDS011;30865;51.288;4.572;2023-04-30T15:02:57;2.67;;;1.80;;
45103;SDS011;30865;51.288;4.572;2023-04-30T15:05:23;3.60;;;2.08;;
45103;SDS011;30865;51.288;4.572;2023-04-30T15:07:49;2.78;;;2.25;;